Time;durP1;ratioP1;P1;durP2;ratioP2;P2;SDS_P1;SDS_P2;PMS_P1;PMS_P2;Temp;Humidity;BMP_temperature;BMP_pressure;BME280_temperature;BME280_humidity;BME280_pressure;Samples;Min_cycle;Max_cycle;Signal;HPM_P1;HPM_P2
2022/08/15 00:01:09;;;;;;;;;;;24.10;63.80;;;;;;4982648;28;20193;-79
2022/08/15 00:03:37;;;;;;;;;;;24.10;63.80;;;;;;4988789;28;20314;-79
2022/08/15 00:06:05;;;;;;;;;;;24.10;63.90;;;;;;4993694;23;19952;-92
2022/08/15 00:08:37;;;;;;;;;;;24.10;64.00;;;;;;4981621;28;19925;-92
2022/08/15 00:11:07;;;;;;;;;;;24.00;64.00;;;;;;4986176;28;20013;-92
2022/08/15 00:13:34;;;;;;;;;;;24.00;64.00;;;;;;4990610;28;19926;-92
2022/08/15 00:16:01;;;;;;;;;;;24.00;64.00;;;;;;4985503;28;19961;-91
2022/08/15 00:18:30;;;;;;;;;;;24.00;64.10;;;;;;4990855;28;20001;-92
2022/08/15 00:20:57;;;;;;;;;;;24.00;64.10;;;;;;4983287;28;19930;-93
2022/08/15 00:23:26;;;;;;;;;;;23.90;64.10;;;;;;5007985;28;19914;-94
2022/08/15 00:25:57;;;;;;;;;;;23.90;64.10;;;;;;4994622;28;19926;-93
2022/08/15 00:28:25;;;;;;;;;;;24.00;64.30;;;;;;4998207;28;19922;-94
2022/08/15 00:30:53;;;;;;;;;;;23.90;64.20;;;;;;5015556;28;19957;-94
2022/08/15 00:33:21;;;;;;;;;;;23.90;64.30;;;;;;5007786;28;19918;-94
2022/08/15 00:35:49;;;;;;;;;;;23.90;64.50;;;;;;5004637;28;19914;-94
2022/08/15 00:38:18;;;;;;;;;;;23.90;64.90;;;;;;5008755;28;19960;-94
2022/08/15 00:43:34;;;;;;;;;;;23.80;64.40;;;;;;5009802;28;19993;-94
2022/08/15 00:46:01;;;;;;;;;;;23.80;64.60;;;;;;5008554;28;19938;-94
2022/08/15 00:48:43;;;;;;;;;;;23.80;64.60;;;;;;5000953;28;19914;-94
2022/08/15 00:51:13;;;;;;;;;;;23.80;64.60;;;;;;5003447;28;19938;-94
2022/08/15 00:53:42;;;;;;;;;;;23.70;64.60;;;;;;5007955;28;19926;-93
2022/08/15 00:56:10;;;;;;;;;;;23.70;64.60;;;;;;4978666;23;20025;-76
2022/08/15 00:58:39;;;;;;;;;;;23.70;64.70;;;;;;4998709;28;19926;-75
2022/08/15 01:01:07;;;;;;;;;;;23.70;64.80;;;;;;4979682;28;19930;-76
2022/08/15 01:03:36;;;;;;;;;;;23.60;64.80;;;;;;4979479;28;19940;-76
2022/08/15 01:06:03;;;;;;;;;;;23.60;64.90;;;;;;4985400;28;19956;-75
2022/08/15 01:08:35;;;;;;;;;;;23.60;64.90;;;;;;4987382;28;19925;-76
2022/08/15 01:11:03;;;;;;;;;;;23.60;64.90;;;;;;4982085;28;19926;-77
2022/08/15 01:13:30;;;;;;;;;;;23.60;64.90;;;;;;4982556;28;19933;-75
2022/08/15 01:15:58;;;;;;;;;;;23.60;64.90;;;;;;4985569;28;20266;-77
2022/08/15 01:18:25;;;;;;;;;;;23.60;64.90;;;;;;4986622;28;20450;-75
2022/08/15 01:20:52;;;;;;;;;;;23.50;64.90;;;;;;4965196;28;19930;-76
2022/08/15 01:23:23;;;;;;;;;;;23.50;65.00;;;;;;4967938;28;19937;-75
2022/08/15 01:25:55;;;;;;;;;;;23.50;65.00;;;;;;4965498;28;19929;-74
2022/08/15 01:28:25;;;;;;;;;;;23.50;65.10;;;;;;4983684;28;19926;-77
2022/08/15 01:30:55;;;;;;;;;;;23.50;65.20;;;;;;4965225;28;19934;-77
2022/08/15 01:33:22;;;;;;;;;;;23.50;65.30;;;;;;4968280;28;19934;-76
2022/08/15 01:35:51;;;;;;;;;;;23.40;65.20;;;;;;4969126;28;19949;-77
2022/08/15 01:38:20;;;;;;;;;;;23.40;65.30;;;;;;4966202;28;19953;-77
2022/08/15 01:40:51;;;;;;;;;;;23.40;65.30;;;;;;4968828;28;19972;-77
2022/08/15 01:43:22;;;;;;;;;;;23.40;65.30;;;;;;4965330;28;19934;-76
2022/08/15 01:45:49;;;;;;;;;;;23.40;65.30;;;;;;4987993;28;19929;-77
2022/08/15 01:48:18;;;;;;;;;;;23.40;65.30;;;;;;4973913;28;20414;-76
2022/08/15 01:50:49;;;;;;;;;;;23.30;65.20;;;;;;4964611;28;20315;-76
2022/08/15 01:53:18;;;;;;;;;;;23.30;65.30;;;;;;4969235;28;19965;-76
2022/08/15 01:55:51;;;;;;;;;;;23.30;65.40;;;;;;4971040;28;20339;-77
2022/08/15 01:58:20;;;;;;;;;;;23.30;65.50;;;;;;4964646;28;20010;-76
2022/08/15 02:00:52;;;;;;;;;;;23.30;65.50;;;;;;4967359;28;19992;-76
2022/08/15 02:03:19;;;;;;;;;;;23.30;65.50;;;;;;4966651;28;19926;-78
2022/08/15 02:05:46;;;;;;;;;;;23.30;65.60;;;;;;5002617;28;20456;-77
2022/08/15 02:08:13;;;;;;;;;;;23.20;65.60;;;;;;4978551;28;20587;-77
2022/08/15 02:10:43;;;;;;;;;;;23.20;65.60;;;;;;4981777;28;19934;-78
2022/08/15 02:13:11;;;;;;;;;;;23.20;65.70;;;;;;4969294;28;20029;-76
2022/08/15 02:15:40;;;;;;;;;;;23.20;65.60;;;;;;4969547;28;20182;-74
2022/08/15 02:18:07;;;;;;;;;;;23.20;65.70;;;;;;4982587;28;20468;-75
2022/08/15 02:20:33;;;;;;;;;;;23.10;65.60;;;;;;4970945;28;20303;-74
2022/08/15 02:23:00;;;;;;;;;;;23.20;65.80;;;;;;4965530;28;19937;-76
2022/08/15 02:25:27;;;;;;;;;;;23.10;65.80;;;;;;4968673;28;20380;-77
2022/08/15 02:27:55;;;;;;;;;;;23.10;65.90;;;;;;4966371;28;20465;-76
2022/08/15 02:30:24;;;;;;;;;;;23.10;66.00;;;;;;4968463;28;20005;-76
2022/08/15 02:32:53;;;;;;;;;;;23.10;65.90;;;;;;4991344;28;20314;-77
2022/08/15 02:35:20;;;;;;;;;;;23.00;65.80;;;;;;4981425;28;19926;-76
2022/08/15 02:37:47;;;;;;;;;;;23.00;65.80;;;;;;4967004;28;20399;-75
2022/08/15 02:40:15;;;;;;;;;;;23.00;65.90;;;;;;4966246;28;19930;-75
2022/08/15 02:42:44;;;;;;;;;;;23.00;66.00;;;;;;4983122;28;19937;-76
2022/08/15 02:45:13;;;;;;;;;;;23.00;65.90;;;;;;4982730;28;19930;-77
2022/08/15 02:47:43;;;;;;;;;;;23.00;65.90;;;;;;4971707;28;19926;-77
2022/08/15 02:50:12;;;;;;;;;;;23.00;65.90;;;;;;4965768;28;20048;-77
2022/08/15 02:52:40;;;;;;;;;;;22.90;65.80;;;;;;4968391;28;19926;-75
2022/08/15 02:55:08;;;;;;;;;;;22.90;65.80;;;;;;4984109;28;20456;-77
2022/08/15 02:57:35;;;;;;;;;;;22.90;65.90;;;;;;4982315;28;20379;-76
2022/08/15 03:00:04;;;;;;;;;;;22.90;65.90;;;;;;4970126;28;20052;-77
2022/08/15 03:02:48;;;;;;;;;;;22.90;66.00;;;;;;4971808;28;19926;-77
2022/08/15 03:05:17;;;;;;;;;;;22.90;66.10;;;;;;4966382;28;20047;-77
2022/08/15 03:07:44;;;;;;;;;;;22.80;66.10;;;;;;4969201;28;19926;-77
2022/08/15 03:10:12;;;;;;;;;;;22.80;66.20;;;;;;4970930;28;19925;-77
2022/08/15 03:12:53;;;;;;;;;;;22.80;66.30;;;;;;4969734;28;20400;-77
2022/08/15 03:15:22;;;;;;;;;;;22.80;66.50;;;;;;4968874;28;19933;-76
2022/08/15 03:17:50;;;;;;;;;;;22.80;67.40;;;;;;4998201;28;19926;-76
2022/08/15 03:20:19;;;;;;;;;;;22.80;66.90;;;;;;4971078;28;20027;-77
2022/08/15 03:22:48;;;;;;;;;;;22.70;66.90;;;;;;4968758;28;20404;-77
2022/08/15 03:25:23;;;;;;;;;;;22.80;67.10;;;;;;4965323;28;20040;-78
2022/08/15 03:27:49;;;;;;;;;;;22.70;67.10;;;;;;4987714;28;20028;-76
2022/08/15 03:30:17;;;;;;;;;;;22.70;67.10;;;;;;4985689;28;19941;-77
2022/08/15 03:32:45;;;;;;;;;;;22.70;67.20;;;;;;4955999;28;20017;-77
2022/08/15 03:35:12;;;;;;;;;;;22.70;67.40;;;;;;4964469;28;21643;-77
2022/08/15 03:37:41;;;;;;;;;;;22.70;67.50;;;;;;4986306;28;20269;-76
2022/08/15 03:40:09;;;;;;;;;;;22.60;67.50;;;;;;4999933;28;19941;-75
2022/08/15 03:42:38;;;;;;;;;;;22.60;67.90;;;;;;4994402;28;19926;-75
2022/08/15 03:45:09;;;;;;;;;;;22.60;67.90;;;;;;4961944;28;19934;-75
2022/08/15 03:47:36;;;;;;;;;;;22.60;68.00;;;;;;4965439;28;19965;-76
2022/08/15 03:50:03;;;;;;;;;;;22.60;68.00;;;;;;4991048;28;19934;-76
2022/08/15 03:52:30;;;;;;;;;;;22.60;68.20;;;;;;4995644;28;20045;-76
2022/08/15 03:55:01;;;;;;;;;;;22.60;68.20;;;;;;4965501;28;20408;-75
2022/08/15 03:57:28;;;;;;;;;;;22.50;68.30;;;;;;4990755;28;19926;-76
2022/08/15 03:59:55;;;;;;;;;;;22.50;68.40;;;;;;4968613;28;19932;-76
2022/08/15 04:02:24;;;;;;;;;;;22.50;69.00;;;;;;4986072;28;19941;-75
2022/08/15 04:04:52;;;;;;;;;;;22.50;68.50;;;;;;4962099;28;19985;-77
2022/08/15 04:07:18;;;;;;;;;;;22.50;68.50;;;;;;4967988;28;19926;-77
2022/08/15 04:09:46;;;;;;;;;;;22.50;68.70;;;;;;4976413;28;20013;-76
2022/08/15 04:12:28;;;;;;;;;;;22.50;69.50;;;;;;4966575;28;20403;-78
2022/08/15 04:14:55;;;;;;;;;;;22.40;69.50;;;;;;5002264;28;19933;-77
2022/08/15 04:17:24;;;;;;;;;;;22.40;69.50;;;;;;4962033;28;20266;-76
2022/08/15 04:19:54;;;;;;;;;;;22.40;69.50;;;;;;4979427;28;19929;-76
2022/08/15 04:22:29;;;;;;;;;;;22.40;69.50;;;;;;4978752;28;20031;-78
2022/08/15 04:24:59;;;;;;;;;;;22.40;69.50;;;;;;4965916;28;19945;-76
2022/08/15 04:27:27;;;;;;;;;;;22.40;69.70;;;;;;4995302;28;19960;-77
2022/08/15 04:29:54;;;;;;;;;;;22.40;69.80;;;;;;4966506;28;19926;-77
2022/08/15 04:32:26;;;;;;;;;;;22.40;69.90;;;;;;4982187;28;19929;-77
2022/08/15 04:34:54;;;;;;;;;;;22.40;70.00;;;;;;4960182;28;20047;-77
2022/08/15 04:37:21;;;;;;;;;;;22.40;70.00;;;;;;4976390;28;19934;-78
2022/08/15 04:39:50;;;;;;;;;;;22.30;69.80;;;;;;4965433;28;19926;-78
2022/08/15 04:42:19;;;;;;;;;;;22.30;69.90;;;;;;4964204;28;20342;-76
2022/08/15 04:44:47;;;;;;;;;;;22.30;70.10;;;;;;4963461;28;19930;-77
2022/08/15 04:47:15;;;;;;;;;;;22.30;70.20;;;;;;4965193;28;20033;-77
2022/08/15 04:49:42;;;;;;;;;;;22.30;70.30;;;;;;4991694;28;19957;-77
2022/08/15 04:52:11;;;;;;;;;;;22.20;70.40;;;;;;4960489;28;19937;-75
2022/08/15 04:54:39;;;;;;;;;;;22.20;70.60;;;;;;4986728;28;19957;-75
2022/08/15 04:57:15;;;;;;;;;;;22.20;71.30;;;;;;4959443;28;19934;-77
2022/08/15 04:59:42;;;;;;;;;;;22.20;71.80;;;;;;5002213;28;19930;-75
2022/08/15 05:02:15;;;;;;;;;;;22.20;71.80;;;;;;4970532;28;19977;-76
2022/08/15 05:04:42;;;;;;;;;;;22.20;71.80;;;;;;4986460;28;20017;-76
2022/08/15 05:07:09;;;;;;;;;;;22.20;71.70;;;;;;4963293;28;19932;-75
2022/08/15 05:09:40;;;;;;;;;;;22.20;71.70;;;;;;4971523;28;19959;-75
2022/08/15 05:12:07;;;;;;;;;;;22.20;71.60;;;;;;4971840;28;19925;-75
2022/08/15 05:14:34;;;;;;;;;;;22.10;71.50;;;;;;4970570;28;19936;-77
2022/08/15 05:17:01;;;;;;;;;;;22.10;71.60;;;;;;4972902;28;20052;-75
2022/08/15 05:19:30;;;;;;;;;;;22.10;71.40;;;;;;4968422;28;20392;-75
2022/08/15 05:21:57;;;;;;;;;;;22.10;71.30;;;;;;4988923;28;19925;-76
2022/08/15 05:24:24;;;;;;;;;;;22.10;71.00;;;;;;4974707;28;19926;-76
2022/08/15 05:26:51;;;;;;;;;;;22.10;71.10;;;;;;4968595;28;20382;-76
2022/08/15 05:29:17;;;;;;;;;;;22.10;71.20;;;;;;4985633;28;20414;-75
2022/08/15 05:31:44;;;;;;;;;;;22.10;70.90;;;;;;4972744;28;20331;-75
2022/08/15 05:34:13;;;;;;;;;;;22.10;71.10;;;;;;4969441;28;20790;-76
2022/08/15 05:37:01;;;;;;;;;;;22.00;71.40;;;;;;4966652;28;19947;-76
2022/08/15 05:39:29;;;;;;;;;;;22.00;71.60;;;;;;4966711;28;19937;-76
2022/08/15 05:42:02;;;;;;;;;;;22.00;71.90;;;;;;5002975;28;19932;-74
2022/08/15 05:44:33;;;;;;;;;;;22.00;72.30;;;;;;4968843;28;19941;-77
2022/08/15 05:47:06;;;;;;;;;;;22.00;72.70;;;;;;4967720;28;20364;-75
2022/08/15 05:49:38;;;;;;;;;;;22.00;72.70;;;;;;4970055;28;19926;-76
2022/08/15 05:52:17;;;;;;;;;;;22.00;72.70;;;;;;4977252;28;19932;-77
2022/08/15 05:54:54;;;;;;;;;;;22.00;72.70;;;;;;4969160;28;19926;-76
2022/08/15 05:57:26;;;;;;;;;;;21.90;72.90;;;;;;4971573;28;19926;-77
2022/08/15 06:00:05;;;;;;;;;;;21.90;73.10;;;;;;4979152;28;20316;-78
2022/08/15 06:02:43;;;;;;;;;;;21.90;73.20;;;;;;4986456;28;20426;-76
2022/08/15 06:05:14;;;;;;;;;;;21.90;73.10;;;;;;4993800;28;19925;-76
2022/08/15 06:07:46;;;;;;;;;;;21.90;73.00;;;;;;4991179;28;20366;-76
2022/08/15 06:10:25;;;;;;;;;;;21.90;73.20;;;;;;4987464;28;20359;-76
2022/08/15 06:12:53;;;;;;;;;;;21.90;73.10;;;;;;4972853;28;19968;-76
2022/08/15 06:15:23;;;;;;;;;;;21.90;73.30;;;;;;4988345;28;19945;-75
2022/08/15 06:17:56;;;;;;;;;;;21.90;73.20;;;;;;4971271;28;20017;-76
2022/08/15 06:20:28;;;;;;;;;;;21.80;73.00;;;;;;4972602;28;19968;-76
2022/08/15 06:23:05;;;;;;;;;;;21.80;73.20;;;;;;4990253;28;19937;-76
2022/08/15 06:25:37;;;;;;;;;;;21.80;73.20;;;;;;4976227;28;19933;-77
2022/08/15 06:28:14;;;;;;;;;;;21.80;73.10;;;;;;4973488;28;19981;-75
2022/08/15 06:30:44;;;;;;;;;;;21.80;73.10;;;;;;4993144;28;19925;-77
2022/08/15 06:33:17;;;;;;;;;;;21.80;73.20;;;;;;4976167;28;19941;-75
2022/08/15 06:35:51;;;;;;;;;;;21.80;73.00;;;;;;5001756;28;19937;-75
2022/08/15 06:38:22;;;;;;;;;;;21.80;73.10;;;;;;4966853;28;19926;-75
2022/08/15 06:40:51;;;;;;;;;;;21.80;72.90;;;;;;4985290;28;19926;-75
2022/08/15 06:43:18;;;;;;;;;;;21.80;73.00;;;;;;4976171;28;19925;-76
2022/08/15 06:46:06;;;;;;;;;;;21.80;72.90;;;;;;4985436;28;19929;-76
2022/08/15 06:48:36;;;;;;;;;;;21.80;73.00;;;;;;4969605;28;19948;-76
2022/08/15 06:51:06;;;;;;;;;;;21.70;73.60;;;;;;4979153;28;19926;-77
2022/08/15 06:53:38;;;;;;;;;;;21.70;72.80;;;;;;4985841;28;19936;-77
2022/08/15 06:56:07;;;;;;;;;;;21.70;73.00;;;;;;4990547;28;19925;-76
2022/08/15 06:58:38;;;;;;;;;;;21.70;73.00;;;;;;4974097;28;19933;-77
2022/08/15 07:01:10;;;;;;;;;;;21.70;72.80;;;;;;4970405;28;20289;-78
2022/08/15 07:03:43;;;;;;;;;;;21.70;72.90;;;;;;4967293;28;20693;-77
2022/08/15 07:06:16;;;;;;;;;;;21.70;72.70;;;;;;4972270;28;20017;-77
2022/08/15 07:08:55;;;;;;;;;;;21.60;72.70;;;;;;4965928;28;19934;-76
2022/08/15 07:11:27;;;;;;;;;;;21.60;72.80;;;;;;4994924;28;19929;-76
2022/08/15 07:14:10;;;;;;;;;;;21.60;72.50;;;;;;4966610;28;20361;-76
2022/08/15 07:16:43;;;;;;;;;;;21.60;72.40;;;;;;4968958;28;19926;-78
2022/08/15 07:19:11;;;;;;;;;;;21.60;73.20;;;;;;4999737;28;19925;-75
2022/08/15 07:21:49;;;;;;;;;;;21.60;73.20;;;;;;4969998;28;19926;-77
2022/08/15 07:24:25;;;;;;;;;;;21.60;73.30;;;;;;4966084;28;19933;-77
2022/08/15 07:26:54;;;;;;;;;;;21.60;73.30;;;;;;4964722;28;20794;-75
2022/08/15 07:29:26;;;;;;;;;;;21.60;73.20;;;;;;4970088;28;19958;-77
2022/08/15 07:31:59;;;;;;;;;;;21.60;73.20;;;;;;4968830;28;20000;-75
2022/08/15 07:34:27;;;;;;;;;;;21.60;73.70;;;;;;4981678;28;20367;-76
2022/08/15 07:36:56;;;;;;;;;;;21.60;73.40;;;;;;4968595;28;19930;-77
2022/08/15 07:39:26;;;;;;;;;;;21.60;73.50;;;;;;4966162;28;19926;-75
2022/08/15 07:41:53;;;;;;;;;;;21.60;73.50;;;;;;4968509;28;20067;-74
2022/08/15 07:44:23;;;;;;;;;;;21.60;73.50;;;;;;4966731;28;19926;-75
2022/08/15 07:46:56;;;;;;;;;;;21.60;73.50;;;;;;4960205;28;20316;-75
2022/08/15 07:49:26;;;;;;;;;;;21.50;73.60;;;;;;4963586;28;19938;-76
2022/08/15 07:51:58;;;;;;;;;;;21.50;73.50;;;;;;4969993;28;19933;-76
2022/08/15 07:54:32;;;;;;;;;;;21.60;74.00;;;;;;4967571;28;19934;-76
2022/08/15 07:57:00;;;;;;;;;;;21.50;73.90;;;;;;4998248;28;19925;-78
2022/08/15 07:59:30;;;;;;;;;;;21.50;74.30;;;;;;4975896;28;19925;-76
2022/08/15 08:02:24;;;;;;;;;;;21.50;73.80;;;;;;4979471;28;20435;-77
2022/08/15 08:04:51;;;;;;;;;;;21.50;73.40;;;;;;4960107;28;19925;-76
2022/08/15 08:07:20;;;;;;;;;;;21.60;74.80;;;;;;4967474;28;19925;-77
2022/08/15 08:09:51;;;;;;;;;;;21.60;74.30;;;;;;4973985;28;20017;-77
2022/08/15 08:12:22;;;;;;;;;;;21.50;74.30;;;;;;4970886;28;19925;-76
2022/08/15 08:14:55;;;;;;;;;;;21.50;74.10;;;;;;4983860;28;19926;-77
2022/08/15 08:17:25;;;;;;;;;;;21.50;74.20;;;;;;4975398;28;19929;-76
2022/08/15 08:20:01;;;;;;;;;;;21.50;73.90;;;;;;4969583;28;20392;-76
2022/08/15 08:22:34;;;;;;;;;;;21.60;74.70;;;;;;4968295;28;20396;-76
2022/08/15 08:25:07;;;;;;;;;;;21.50;74.60;;;;;;4967732;28;19932;-75
2022/08/15 08:27:38;;;;;;;;;;;21.50;74.50;;;;;;4965272;28;19930;-78
2022/08/15 08:30:09;;;;;;;;;;;21.50;74.60;;;;;;4968558;28;19932;-77
2022/08/15 08:32:42;;;;;;;;;;;21.50;74.80;;;;;;4979003;28;19926;-77
2022/08/15 08:35:14;;;;;;;;;;;21.50;74.60;;;;;;4970272;28;19961;-75
2022/08/15 08:37:46;;;;;;;;;;;21.60;74.80;;;;;;4981486;28;20012;-75
2022/08/15 08:43:07;;;;;;;;;;;21.50;74.50;;;;;;4981451;28;20089;-78
2022/08/15 08:45:38;;;;;;;;;;;21.50;74.40;;;;;;4985387;28;19929;-74
2022/08/15 08:48:11;;;;;;;;;;;21.50;74.30;;;;;;4981211;28;20355;-75
2022/08/15 08:50:44;;;;;;;;;;;21.50;74.20;;;;;;4985142;28;19926;-75
2022/08/15 08:53:17;;;;;;;;;;;21.50;74.20;;;;;;4988982;28;19961;-75
2022/08/15 08:55:47;;;;;;;;;;;21.50;74.00;;;;;;4990607;28;19984;-76
2022/08/15 08:58:18;;;;;;;;;;;21.50;74.10;;;;;;4979915;28;19929;-74
2022/08/15 09:00:46;;;;;;;;;;;21.50;74.20;;;;;;4987521;28;19933;-75
2022/08/15 09:03:17;;;;;;;;;;;21.50;74.20;;;;;;4982222;28;20385;-76
2022/08/15 09:05:51;;;;;;;;;;;21.50;74.10;;;;;;4987813;28;19953;-75
2022/08/15 09:08:20;;;;;;;;;;;21.50;74.00;;;;;;4977634;28;19965;-75
2022/08/15 09:10:50;;;;;;;;;;;21.50;74.00;;;;;;4987814;28;19926;-75
2022/08/15 09:13:34;;;;;;;;;;;21.50;73.90;;;;;;4971377;28;20041;-76
2022/08/15 09:16:03;;;;;;;;;;;21.50;73.90;;;;;;4983630;28;19961;-74
2022/08/15 09:18:32;;;;;;;;;;;21.50;74.00;;;;;;4983994;28;19949;-76
2022/08/15 09:20:59;;;;;;;;;;;21.50;73.90;;;;;;4971024;28;19926;-76
2022/08/15 09:23:27;;;;;;;;;;;21.50;73.90;;;;;;4985024;28;20024;-77
2022/08/15 09:25:59;;;;;;;;;;;21.60;74.00;;;;;;4983751;28;19997;-75
2022/08/15 09:28:30;;;;;;;;;;;21.60;74.00;;;;;;4969694;28;19925;-76
2022/08/15 09:30:58;;;;;;;;;;;21.60;74.00;;;;;;4988245;28;20368;-74
2022/08/15 09:33:33;;;;;;;;;;;21.50;74.00;;;;;;4976507;28;20018;-77
2022/08/15 09:36:16;;;;;;;;;;;21.50;74.00;;;;;;4986459;28;20452;-74
2022/08/15 09:38:48;;;;;;;;;;;21.60;74.00;;;;;;4991263;28;19972;-75
2022/08/15 09:41:28;;;;;;;;;;;21.60;74.00;;;;;;5000097;28;19933;-76
2022/08/15 09:44:09;;;;;;;;;;;21.60;73.70;;;;;;4968444;28;19930;-76
2022/08/15 09:47:08;;;;;;;;;;;21.60;74.10;;;;;;4968009;28;19934;-75
2022/08/15 09:49:48;;;;;;;;;;;21.60;73.90;;;;;;4953400;28;20028;-76
2022/08/15 09:52:23;;;;;;;;;;;21.60;74.20;;;;;;5005991;28;19977;-75
2022/08/15 09:54:54;;;;;;;;;;;21.60;73.90;;;;;;4988052;28;19925;-76
2022/08/15 09:57:31;;;;;;;;;;;21.60;73.80;;;;;;4988413;28;20277;-77
2022/08/15 09:59:59;;;;;;;;;;;21.60;74.00;;;;;;4983797;28;19926;-76
2022/08/15 10:02:27;;;;;;;;;;;21.60;74.00;;;;;;4984658;28;20021;-76
2022/08/15 10:05:24;;;;;;;;;;;21.60;73.70;;;;;;4987373;28;19933;-75
2022/08/15 10:07:52;;;;;;;;;;;21.60;73.60;;;;;;4887205;29;19963;-76
2022/08/15 10:10:21;;;;;;;;;;;21.70;73.80;;;;;;4964352;28;19932;-75
2022/08/15 10:13:07;;;;;;;;;;;21.70;73.50;;;;;;4968860;28;19938;-76
2022/08/15 10:15:41;;;;;;;;;;;21.70;73.40;;;;;;4968279;28;19933;-77
2022/08/15 10:18:08;;;;;;;;;;;21.70;73.70;;;;;;4983339;28;19925;-76
2022/08/15 10:20:53;;;;;;;;;;;21.70;73.90;;;;;;4992746;28;20024;-77
2022/08/15 10:23:24;;;;;;;;;;;21.70;73.60;;;;;;4987811;28;19930;-76
2022/08/15 10:26:10;;;;;;;;;;;21.70;73.30;;;;;;4990443;28;19985;-75
2022/08/15 10:28:40;;;;;;;;;;;21.80;73.40;;;;;;4986297;28;20028;-76
2022/08/15 10:31:24;;;;;;;;;;;21.70;73.30;;;;;;4981470;28;19988;-76
2022/08/15 10:33:52;;;;;;;;;;;21.80;73.40;;;;;;4985764;28;19933;-77
2022/08/15 10:36:24;;;;;;;;;;;21.80;73.30;;;;;;4978047;28;20347;-74
2022/08/15 10:38:54;;;;;;;;;;;21.80;73.20;;;;;;4989786;28;19980;-76
2022/08/15 10:41:26;;;;;;;;;;;21.80;73.20;;;;;;4985155;28;19981;-76
2022/08/15 10:43:58;;;;;;;;;;;21.80;73.20;;;;;;4968568;28;20625;-76
2022/08/15 10:46:40;;;;;;;;;;;21.80;73.00;;;;;;4968710;28;19930;-76
2022/08/15 10:49:12;;;;;;;;;;;21.80;73.20;;;;;;4984110;28;21325;-73
2022/08/15 10:51:53;;;;;;;;;;;21.80;73.40;;;;;;4991752;28;19930;-75
2022/08/15 10:54:30;;;;;;;;;;;21.90;73.40;;;;;;4975373;28;19933;-75
2022/08/15 10:56:58;;;;;;;;;;;21.90;73.30;;;;;;4982716;28;20304;-75
2022/08/15 10:59:26;;;;;;;;;;;21.90;73.50;;;;;;4985499;28;19932;-75
2022/08/15 11:02:05;;;;;;;;;;;21.90;73.20;;;;;;4984774;28;19937;-76
2022/08/15 11:04:35;;;;;;;;;;;21.90;73.10;;;;;;4984738;28;19933;-76
2022/08/15 11:07:03;;;;;;;;;;;22.00;72.90;;;;;;4984340;28;19976;-76
2022/08/15 11:09:30;;;;;;;;;;;22.00;73.00;;;;;;4985611;28;19938;-75
2022/08/15 11:12:00;;;;;;;;;;;22.00;72.90;;;;;;4988068;28;19925;-75
2022/08/15 11:14:28;;;;;;;;;;;22.00;72.80;;;;;;4965035;28;19976;-75
2022/08/15 11:16:56;;;;;;;;;;;22.00;73.20;;;;;;4965027;28;19926;-76
2022/08/15 11:19:27;;;;;;;;;;;22.10;73.20;;;;;;4988415;28;20335;-76
2022/08/15 11:21:55;;;;;;;;;;;22.10;72.80;;;;;;4987367;28;19930;-75
2022/08/15 11:24:27;;;;;;;;;;;22.10;72.90;;;;;;4983540;28;20020;-75
2022/08/15 11:27:08;;;;;;;;;;;22.10;72.90;;;;;;4974109;28;19929;-76
2022/08/15 11:29:35;;;;;;;;;;;22.10;72.90;;;;;;4958182;28;19934;-77
2022/08/15 11:32:02;;;;;;;;;;;22.30;74.10;;;;;;4983096;28;20450;-76
2022/08/15 11:34:32;;;;;;;;;;;22.50;73.60;;;;;;4986230;28;19945;-75
2022/08/15 11:37:03;;;;;;;;;;;22.50;73.30;;;;;;4985615;28;19926;-75
2022/08/15 11:39:31;;;;;;;;;;;22.50;73.30;;;;;;4984389;28;20328;-74
2022/08/15 11:42:00;;;;;;;;;;;22.50;73.20;;;;;;4982087;28;19989;-75
2022/08/15 11:44:32;;;;;;;;;;;22.50;73.10;;;;;;4982465;28;20299;-75
2022/08/15 11:46:59;;;;;;;;;;;22.50;73.20;;;;;;4988155;28;19934;-75
2022/08/15 11:49:29;;;;;;;;;;;22.50;73.10;;;;;;4969191;28;20021;-75
2022/08/15 11:52:01;;;;;;;;;;;22.50;73.10;;;;;;4980940;28;19996;-74
2022/08/15 11:54:28;;;;;;;;;;;22.60;73.30;;;;;;4978529;28;19926;-75
2022/08/15 11:56:56;;;;;;;;;;;22.60;73.20;;;;;;4981429;28;19981;-74
2022/08/15 11:59:24;;;;;;;;;;;22.60;73.20;;;;;;4988104;28;19933;-75
2022/08/15 12:02:12;;;;;;;;;;;22.60;73.10;;;;;;4981769;28;19930;-75
2022/08/15 12:04:40;;;;;;;;;;;22.70;73.00;;;;;;4979572;28;19926;-75
2022/08/15 12:07:13;;;;;;;;;;;22.70;72.90;;;;;;4988355;28;19930;-76
2022/08/15 12:09:40;;;;;;;;;;;22.70;72.80;;;;;;4984862;28;19976;-75
2022/08/15 12:12:17;;;;;;;;;;;22.80;72.90;;;;;;4979819;28;20020;-73
2022/08/15 12:14:46;;;;;;;;;;;22.80;72.70;;;;;;4975495;28;19965;-75
2022/08/15 12:17:24;;;;;;;;;;;22.80;72.60;;;;;;4980554;28;19932;-74
2022/08/15 12:19:54;;;;;;;;;;;22.80;72.60;;;;;;4985730;28;19937;-74
2022/08/15 12:22:29;;;;;;;;;;;22.90;72.60;;;;;;4982030;28;19938;-75
2022/08/15 12:24:56;;;;;;;;;;;22.90;72.50;;;;;;4964189;28;20139;-73
2022/08/15 12:27:23;;;;;;;;;;;22.90;72.50;;;;;;4979856;28;19965;-74
2022/08/15 12:29:50;;;;;;;;;;;23.00;72.20;;;;;;4981791;28;19968;-75
2022/08/15 12:32:17;;;;;;;;;;;23.00;71.20;;;;;;4988167;28;19948;-75
2022/08/15 12:34:44;;;;;;;;;;;23.00;70.70;;;;;;4981109;28;19980;-73
2022/08/15 12:37:13;;;;;;;;;;;23.10;70.80;;;;;;5000318;28;19976;-76
2022/08/15 12:39:43;;;;;;;;;;;23.10;70.30;;;;;;4980615;28;19925;-74
2022/08/15 12:42:12;;;;;;;;;;;23.10;70.10;;;;;;4982830;28;20027;-75
2022/08/15 12:44:39;;;;;;;;;;;23.10;70.00;;;;;;4956997;28;19965;-74
2022/08/15 12:47:06;;;;;;;;;;;23.10;70.30;;;;;;4966285;28;19961;-75
2022/08/15 12:49:33;;;;;;;;;;;23.20;70.40;;;;;;4983738;28;20284;-75
2022/08/15 12:52:00;;;;;;;;;;;23.20;70.10;;;;;;4983312;28;19985;-74
2022/08/15 12:54:27;;;;;;;;;;;23.20;69.90;;;;;;4964621;28;19934;-74
2022/08/15 12:56:55;;;;;;;;;;;23.20;69.90;;;;;;4985675;28;19942;-76
2022/08/15 12:59:22;;;;;;;;;;;23.30;69.40;;;;;;4987456;28;20351;-76
2022/08/15 13:01:50;;;;;;;;;;;23.30;69.40;;;;;;4982365;28;20383;-76
2022/08/15 13:04:17;;;;;;;;;;;23.30;69.50;;;;;;4981276;28;20409;-77
2022/08/15 13:06:48;;;;;;;;;;;23.30;69.40;;;;;;4961442;28;20403;-76
2022/08/15 13:09:16;;;;;;;;;;;23.30;69.20;;;;;;4968243;28;20408;-75
2022/08/15 13:11:44;;;;;;;;;;;23.40;69.40;;;;;;4967494;28;19933;-74
2022/08/15 13:14:13;;;;;;;;;;;23.40;69.60;;;;;;4985240;28;19930;-76
2022/08/15 13:16:40;;;;;;;;;;;23.40;69.60;;;;;;4987057;28;19925;-76
2022/08/15 13:19:08;;;;;;;;;;;23.40;69.70;;;;;;4985372;28;19930;-77
2022/08/15 13:24:20;;;;;;;;;;;23.40;69.70;;;;;;4979464;28;20012;-76
2022/08/15 13:26:47;;;;;;;;;;;23.50;69.70;;;;;;4978196;28;19984;-75
2022/08/15 13:29:18;;;;;;;;;;;23.50;69.30;;;;;;4976262;28;19929;-75
2022/08/15 13:31:46;;;;;;;;;;;23.50;69.20;;;;;;4981989;28;19925;-75
2022/08/15 13:34:13;;;;;;;;;;;23.50;69.10;;;;;;4985127;28;19961;-74
2022/08/15 13:36:40;;;;;;;;;;;23.60;68.90;;;;;;4985654;28;19933;-75
2022/08/15 13:39:08;;;;;;;;;;;23.60;69.10;;;;;;4983265;28;20024;-76
2022/08/15 13:41:35;;;;;;;;;;;23.60;68.80;;;;;;4972696;28;19934;-74
2022/08/15 13:44:02;;;;;;;;;;;23.60;68.20;;;;;;4981667;28;19997;-75
2022/08/15 13:46:30;;;;;;;;;;;23.70;68.60;;;;;;4978912;28;20036;-78
2022/08/15 13:48:59;;;;;;;;;;;23.70;68.70;;;;;;4978959;28;19929;-74
2022/08/15 13:51:29;;;;;;;;;;;23.80;69.00;;;;;;4975752;28;19933;-74
2022/08/15 13:53:57;;;;;;;;;;;23.80;69.10;;;;;;4978345;28;19973;-75
2022/08/15 13:56:23;;;;;;;;;;;23.80;69.10;;;;;;4979804;28;20021;-76
2022/08/15 13:58:50;;;;;;;;;;;23.90;69.00;;;;;;4979499;28;19926;-75
2022/08/15 14:01:18;;;;;;;;;;;23.90;68.90;;;;;;4977076;28;19934;-77
2022/08/15 14:03:49;;;;;;;;;;;23.90;69.20;;;;;;4977490;28;19953;-76
2022/08/15 14:06:15;;;;;;;;;;;24.00;69.60;;;;;;5043233;22;19932;-76
2022/08/15 14:08:43;;;;;;;;;;;24.00;69.70;;;;;;5000784;28;20013;-76
2022/08/15 14:11:10;;;;;;;;;;;24.00;69.80;;;;;;4989694;28;19935;-75
2022/08/15 14:16:06;;;;;;;;;;;24.10;69.90;;;;;;5005372;28;19987;-75
2022/08/15 14:18:35;;;;;;;;;;;24.10;69.80;;;;;;5003426;28;20209;-76
2022/08/15 14:21:04;;;;;;;;;;;24.10;69.80;;;;;;5002297;28;19925;-75
2022/08/15 14:23:31;;;;;;;;;;;24.20;70.00;;;;;;4990591;28;19925;-76
2022/08/15 14:25:58;;;;;;;;;;;24.20;69.90;;;;;;5002235;28;20044;-75
2022/08/15 14:28:25;;;;;;;;;;;24.30;70.10;;;;;;5001709;28;20455;-76
2022/08/15 14:30:53;;;;;;;;;;;24.30;70.00;;;;;;5002441;28;19933;-76
2022/08/15 14:33:20;;;;;;;;;;;24.40;70.10;;;;;;5004337;28;20667;-76
2022/08/15 14:35:47;;;;;;;;;;;24.40;70.10;;;;;;4999632;28;20351;-76
2022/08/15 14:38:16;;;;;;;;;;;24.40;70.00;;;;;;5003759;28;20450;-76
2022/08/15 14:40:44;;;;;;;;;;;24.40;70.00;;;;;;5000653;28;20481;-76
2022/08/15 14:43:14;;;;;;;;;;;24.50;69.80;;;;;;5006274;28;19933;-77
2022/08/15 14:45:41;;;;;;;;;;;24.50;69.80;;;;;;4990053;28;20036;-76